Weather observations for the past three days for
Faith
| Date | Time (mdt) | Wind (mph) | Vis. (mi.) | Weather | Sky Cond. | Temperature (ºF) | Relative Humidity | Wind Chill (°F) | Heat Index (°F) | Pressure | Precipitation (in) | ||||||
|---|---|---|---|---|---|---|---|---|---|---|---|---|---|---|---|---|---|
| Air | Dwpt | 6 hour | altimeter (in) | sea level (mb) | 1 hr | 3 hr | 6 hr | ||||||||||
| Max. | Min. | ||||||||||||||||
| 03 | 06:56 | S 15 | 0.00 | NULL | NULL | 64 | 51.1 | 63% | 29.72 | 1004.8 | |||||||
| 03 | 05:56 | S 14 | 0.00 | NULL | NULL | 62.1 | 55 | 72 | 62.1 | 78% | 29.71 | 1004.5 | |||||
| 03 | 04:56 | S 16 | 0.00 | NULL | NULL | 63 | 59 | 87% | 29.71 | 1004.3 | |||||||
| 03 | 03:56 | S 16 | 0.00 | NULL | NULL | 64 | 62.1 | 93% | 29.71 | 1004.2 | |||||||
| 03 | 02:56 | S 15 | 0.00 | NULL | NULL | 66 | 64 | 93% | 29.7 | 1004.0 | |||||||
| 03 | 01:56 | SE 14 | 0.00 | NULL | NULL | 69.1 | 66 | 90% | 29.72 | 1004.7 | |||||||
| 03 | 00:56 | SE 13 | 0.00 | NULL | NULL | 70 | 66.9 | 90% | 29.74 | 1005.3 | |||||||
| 02 | 23:56 | SE 15 | 0.00 | NULL | NULL | 72 | 66.9 | 87.1 | 72 | 84% | 29.74 | 1005.4 | |||||
| 02 | 22:56 | SE 16 | 0.00 | NULL | NULL | 75 | 66.9 | 76% | 76 | 29.76 | 1006.2 | ||||||
| 02 | 21:56 | SE 20 G 28 | 0.00 | NULL | NULL | 75.9 | 66 | 72% | 77 | 29.76 | 1006.1 | ||||||
| 02 | 20:56 | E 15 G 26 | 0.00 | NULL | NULL | 77 | 64.9 | 66% | 79 | 29.76 | 1006.2 | ||||||
| 02 | 19:56 | E 14 | 0.00 | NULL | NULL | 78.1 | 64 | 62% | 80 | 29.75 | 1006.1 | ||||||
| 02 | 18:56 | E 14 | 0.00 | NULL | NULL | 82 | 64 | 55% | 84 | 29.76 | 1006.3 | ||||||
| 02 | 17:56 | SE 17 G 24 | 0.00 | NULL | NULL | 87.1 | 60.1 | 88 | 73.9 | 40% | 87 | 29.76 | 1006.1 | ||||
| 02 | 16:56 | SE 9 G 22 | 0.00 | NULL | NULL | 87.1 | 59 | 39% | 86 | 29.78 | 1006.7 | ||||||
| 02 | 15:56 | SE 14 G 24 | 0.00 | NULL | NULL | 87.1 | 62.1 | 43% | 88 | 29.8 | 1007.4 | ||||||
| 02 | 14:56 | SE 12 G 16 | 0.00 | NULL | NULL | 86 | 63 | 46% | 87 | 29.81 | 1007.9 | ||||||
| 02 | 13:56 | SE 12 G 16 | 0.00 | NULL | NULL | 81 | 63 | 54% | 82 | 29.84 | 1009.0 | ||||||
| 02 | 12:56 | SE 9 | 0.00 | NULL | NULL | 79 | 63 | 58% | 81 | 29.86 | 1009.9 | ||||||
| 02 | 11:56 | SE 13 | 0.00 | NULL | NULL | 73.9 | 63 | 75 | 61 | 69% | 29.89 | 1011.3 | |||||
| 02 | 10:56 | S 9 G 18 | 0.00 | NULL | NULL | 72 | 62.1 | 71% | 29.9 | 1011.6 | |||||||
| 02 | 09:56 | SE 9 | 0.00 | NULL | NULL | 69.1 | 61 | 76% | 29.9 | 1011.6 | |||||||
| 02 | 08:56 | SE 10 | 0.00 | NULL | NULL | 66 | 60.1 | 81% | 29.91 | 1011.9 | |||||||
| 02 | 07:56 | E 8 | 0.00 | NULL | NULL | 63 | 59 | 87% | 29.91 | 1012.2 | |||||||
| 02 | 06:56 | E 9 | 0.00 | NULL | NULL | 62.1 | 57.9 | 86% | 29.91 | 1012.0 | |||||||
| 02 | 05:56 | E 9 | 0.00 | NULL | NULL | 61 | 57.9 | 61 | 55.9 | 90% | 29.9 | 1011.7 | |||||
| 02 | 04:56 | E 6 | 0.00 | NULL | NULL | 57 | 55 | 93% | 29.9 | 1011.8 | |||||||
| 02 | 03:56 | NE 7 | 0.00 | NULL | NULL | 57 | 54 | 90% | 29.9 | 1011.8 | |||||||
| 02 | 02:56 | E 7 | 0.00 | NULL | NULL | 59 | 55 | 87% | 29.9 | 1011.8 | |||||||
| 02 | 01:56 | NE 7 | 0.00 | NULL | NULL | 60.1 | 54 | 80% | 29.91 | 1011.9 | |||||||
| 02 | 00:56 | E 7 | 0.00 | NULL | NULL | 61 | 54 | 78% | 29.92 | 1012.1 | |||||||
| 01 | 23:56 | NE 7 | 0.00 | NULL | NULL | 60.1 | 53.1 | 71.1 | 60.1 | 78% | 29.92 | 1012.3 | |||||
| 01 | 22:56 | E 7 | 0.00 | NULL | NULL | 61 | 53.1 | 75% | 29.93 | 1012.5 | |||||||
| 01 | 21:56 | E 7 | 0.00 | NULL | NULL | 62.1 | 53.1 | 73% | 29.93 | 1012.6 | |||||||
| 01 | 20:56 | E 7 | 0.00 | NULL | NULL | 64 | 55 | 73% | 29.94 | 1012.9 | |||||||
| 01 | 19:56 | NE 8 | 0.00 | NULL | NULL | 66 | 55.9 | 70% | 29.94 | 1013.0 | |||||||
| 01 | 18:56 | E 7 | 0.00 | NULL | NULL | 69.1 | 52 | 55% | 29.94 | 1013.3 | |||||||
| 01 | 17:56 | E 8 | 0.00 | NULL | NULL | 70 | 55 | 73.9 | 70 | 59% | 29.95 | 1013.6 | |||||
| 01 | 16:56 | E 13 | 0.00 | NULL | NULL | 71.1 | 55 | 57% | 29.96 | 1013.8 | |||||||
| 01 | 15:56 | E 6 | 0.00 | NULL | NULL | 70 | 54 | 57% | 29.96 | 1013.7 | |||||||
| 01 | 14:56 | SE 7 | 0.00 | NULL | NULL | 71.1 | 52 | 51% | 29.98 | 1014.3 | |||||||
| 01 | 13:56 | SE 15 | 0.00 | NULL | NULL | 72 | 50 | 46% | 29.99 | 1014.7 | |||||||
| 01 | 12:56 | SE 9 | 0.00 | NULL | NULL | 73.9 | 48.9 | 41% | 29.99 | 1014.5 | |||||||
| 01 | 11:56 | SE 12 | 0.00 | NULL | NULL | 73.9 | 44.1 | 75.9 | 54 | 34% | 30.01 | 1014.9 | |||||
| 01 | 10:56 | SE 14 | 0.00 | NULL | NULL | 73.9 | 41 | 31% | 30.01 | 1015.0 | |||||||
| 01 | 09:56 | SE 13 | 0.00 | NULL | NULL | 72 | 43 | 35% | 30 | 1014.9 | |||||||
| 01 | 08:56 | SE 10 | 0.00 | NULL | NULL | 70 | 43 | 38% | 30.01 | 1015.2 | |||||||
| 01 | 07:56 | E 7 | 0.00 | NULL | NULL | 63 | 45 | 52% | 30.01 | 1015.3 | |||||||
| 01 | 06:56 | E 7 | 0.00 | NULL | NULL | 57 | 43 | 60% | 30.01 | 1015.5 | |||||||
| 01 | 05:56 | NE 6 | 0.00 | NULL | NULL | 55 | 43 | 68 | 55 | 64% | 30 | 1014.8 | |||||
| 01 | 04:56 | N 8 | 0.00 | NULL | NULL | 57.9 | 39.9 | 51% | 30 | 1014.6 | |||||||
| 01 | 03:56 | Calm | 0.00 | NULL | NULL | 62.1 | 37.9 | 41% | 30.02 | 1014.9 | |||||||
| 01 | 02:56 | Calm | 0.00 | NULL | NULL | 63 | 39 | 41% | 30.01 | 1014.7 | |||||||
| 01 | 01:56 | NE 6 | 0.00 | NULL | NULL | 62.1 | 39 | 43% | 30.01 | 1014.7 | |||||||
| 31 | 23:56 | E 5 | 0.00 | NULL | NULL | 66 | 39 | 82.9 | 63 | 37% | 30.02 | 1015.1 | |||||
| 31 | 22:56 | E 6 | 0.00 | NULL | NULL | 66 | 39.9 | 39% | 30.02 | 1015.1 | |||||||
| 31 | 21:56 | N 8 | 0.00 | NULL | NULL | 64.9 | 41 | 42% | 30.01 | 1015.2 | |||||||
| 31 | 20:56 | NE 6 | 0.00 | NULL | NULL | 64.9 | 41 | 42% | 30 | 1015.2 | |||||||
| 31 | 19:56 | N 7 | 0.00 | NULL | NULL | 70 | 39.9 | 34% | 29.98 | 1014.4 | |||||||
| 31 | 18:56 | N 8 | 0.00 | NULL | NULL | 75 | 39.9 | 28% | 77 | 29.97 | 1014.1 | ||||||
| 31 | 16:56 | NW 14 | 0.00 | NULL | NULL | 86 | 39 | 19% | 83 | 29.95 | 1012.9 | ||||||
| 31 | 15:56 | W 9 G 22 | 0.00 | NULL | NULL | 86 | 39.9 | 20% | 83 | 29.95 | 1012.8 | ||||||
| 31 | 14:56 | SW 9 G 21 | 0.00 | NULL | NULL | 86 | 36 | 17% | 83 | 29.96 | 1013.2 | ||||||
| 31 | 13:56 | NW 10 G 23 | 0.00 | NULL | NULL | 86 | 36 | 17% | 83 | 29.96 | 1013.3 | ||||||
| 31 | 12:56 | Vrbl 3 G 17 | 0.00 | NULL | NULL | 82.9 | 37 | 19% | 80 | 29.97 | 1013.7 | ||||||
| 31 | 11:56 | Vrbl 5 | 0.00 | NULL | NULL | 81 | 37 | 81 | 54 | 21% | 79 | 29.99 | 1014.4 | ||||
| 31 | 10:56 | SW 9 | 0.00 | NULL | NULL | 78.1 | 36 | 22% | 78 | 30 | 1015.0 | ||||||
| 31 | 09:56 | SW 8 | 0.00 | NULL | NULL | 73 | 42.1 | 33% | 30 | 1015.1 | |||||||
| 31 | 08:56 | SW 9 | 0.00 | NULL | NULL | 66 | 48.9 | 54% | 29.99 | 1015.3 | |||||||
| 31 | 07:56 | W 6 | 0.00 | NULL | NULL | 61 | 48 | 63% | 29.99 | 1015.2 | |||||||
| Date | Time (mdt) | Wind (mph) | Vis. (mi.) | Weather | Sky Cond. | Air | Dwpt | Max. | Min. | Relative Humidity | Wind Chill (°F) | Heat Index (°F) | altimeter (in) | sea level (mb) | 1 hr | 3 hr | 6 hr |
| 6 hour | |||||||||||||||||
| Temperature (ºF) | Pressure | Precipitation (in) | |||||||||||||||